Time;durP1;ratioP1;P1;durP2;ratioP2;P2;SDS_P1;SDS_P2;PMS_P1;PMS_P2;Temp;Humidity;BMP_temperature;BMP_pressure;BME280_temperature;BME280_humidity;BME280_pressure;Samples;Min_cycle;Max_cycle;Signal;HPM_P1;HPM_P2
2022/02/23 00:01:19;;;;;;;31.10;10.30;;;;;;;3.05;72.74;99759.75;130509;1267;108977;-76
2022/02/23 00:04:24;;;;;;;26.00;9.20;;;;;;;3.09;72.77;99758.19;130432;1267;108961;-75
2022/02/23 00:07:30;;;;;;;17.00;7.90;;;;;;;3.13;72.75;99759.63;130490;1267;109638;-75
2022/02/23 00:10:35;;;;;;;19.80;7.80;;;;;;;3.17;72.65;99756.58;130418;1266;109282;-74
2022/02/23 00:13:41;;;;;;;23.20;9.00;;;;;;;3.18;72.59;99755.75;130468;1266;107645;-75
2022/02/23 00:16:46;;;;;;;21.70;8.30;;;;;;;3.19;72.68;99753.05;130414;1267;108884;-74
2022/02/23 00:19:52;;;;;;;23.20;8.50;;;;;;;3.19;72.63;99750.38;130539;1267;108747;-75
2022/02/23 00:22:57;;;;;;;18.50;7.80;;;;;;;3.19;72.67;99745.45;130366;1267;106816;-75
2022/02/23 00:26:03;;;;;;;19.00;6.60;;;;;;;3.24;72.75;99739.64;130399;1267;108067;-75
2022/02/23 00:29:08;;;;;;;17.80;7.30;;;;;;;3.31;72.71;99739.96;130522;1266;108982;-73
2022/02/23 00:32:14;;;;;;;27.60;9.70;;;;;;;3.39;72.62;99734.94;130442;1267;108894;-73
2022/02/23 00:35:20;;;;;;;21.50;8.60;;;;;;;3.45;72.64;99731.33;130379;1267;108874;-74
2022/02/23 00:38:25;;;;;;;19.60;8.10;;;;;;;3.47;72.43;99726.95;130435;1267;107686;-78
2022/02/23 00:41:30;;;;;;;22.70;8.80;;;;;;;3.47;72.55;99723.56;130566;1267;109109;-78
2022/02/23 00:44:36;;;;;;;20.60;8.50;;;;;;;3.46;72.39;99724.18;130598;1267;108764;-78
2022/02/23 00:47:42;;;;;;;21.20;8.40;;;;;;;3.45;72.50;99725.56;130408;1267;108564;-77
2022/02/23 00:50:48;;;;;;;20.00;8.70;;;;;;;3.41;72.45;99714.91;130380;1267;108525;-77
2022/02/23 00:53:53;;;;;;;19.70;8.40;;;;;;;3.39;72.59;99713.68;130424;1267;108724;-75
2022/02/23 00:56:59;;;;;;;21.60;8.40;;;;;;;3.37;72.55;99708.18;130371;1266;108738;-76
2022/02/23 01:00:05;;;;;;;17.50;7.50;;;;;;;3.37;72.43;99698.92;130339;1267;108754;-74
2022/02/23 01:03:11;;;;;;;16.10;6.10;;;;;;;3.38;72.52;99692.29;130496;1266;108544;-73
2022/02/23 01:06:17;;;;;;;19.60;6.50;;;;;;;3.42;72.52;99694.10;130305;1267;108858;-73
2022/02/23 01:09:22;;;;;;;18.60;7.00;;;;;;;3.49;72.52;99697.63;130479;1267;108938;-76
2022/02/23 01:12:28;;;;;;;17.80;6.70;;;;;;;3.52;72.28;99695.56;130588;1267;107716;-76
2022/02/23 01:15:33;;;;;;;18.60;6.50;;;;;;;3.53;72.31;99694.26;130393;1267;108512;-77
2022/02/23 01:18:39;;;;;;;19.70;6.80;;;;;;;3.52;72.28;99691.50;130426;1267;108631;-76
2022/02/23 01:21:44;;;;;;;18.30;6.60;;;;;;;3.50;72.28;99684.29;130456;1267;108733;-76
2022/02/23 01:24:49;;;;;;;17.80;6.90;;;;;;;3.47;72.12;99684.00;130558;1267;108730;-77
2022/02/23 01:27:55;;;;;;;18.60;6.60;;;;;;;3.45;72.41;99678.04;130443;1267;106741;-77
2022/02/23 01:31:00;;;;;;;18.60;7.10;;;;;;;3.42;72.26;99671.11;130344;1267;107712;-78
2022/02/23 01:34:06;;;;;;;19.40;6.60;;;;;;;3.39;72.33;99666.00;130410;1267;108243;-75
2022/02/23 01:37:12;;;;;;;22.80;7.70;;;;;;;3.37;72.30;99663.23;130365;1267;108672;-75
2022/02/23 01:40:18;;;;;;;16.20;6.00;;;;;;;3.39;72.32;99659.39;130392;1266;108643;-74
2022/02/23 01:43:23;;;;;;;22.00;6.70;;;;;;;3.43;72.29;99653.03;130395;1267;107086;-75
2022/02/23 01:46:30;;;;;;;16.80;6.60;;;;;;;3.51;72.25;99652.36;130463;1266;108802;-75
2022/02/23 01:49:37;;;;;;;15.50;6.70;;;;;;;3.57;72.17;99642.96;130560;1267;108789;-75
2022/02/23 01:52:43;;;;;;;15.10;6.20;;;;;;;3.62;71.97;99633.95;130371;1267;108853;-75
2022/02/23 01:55:48;;;;;;;18.50;7.00;;;;;;;3.64;71.88;99633.98;130414;1267;108880;-75
2022/02/23 01:58:54;;;;;;;14.50;6.30;;;;;;;3.62;71.88;99630.47;130503;1267;108609;-75
2022/02/23 02:01:59;;;;;;;16.40;6.80;;;;;;;3.58;71.71;99617.94;130393;1266;108879;-75
2022/02/23 02:05:06;;;;;;;15.90;6.00;;;;;;;3.55;71.87;99606.02;130381;1267;108654;-75
2022/02/23 02:08:12;;;;;;;18.80;6.60;;;;;;;3.55;71.97;99601.30;130375;1267;108944;-76
2022/02/23 02:11:17;;;;;;;15.10;6.00;;;;;;;3.51;71.87;99605.80;130414;1267;108996;-76
2022/02/23 02:14:23;;;;;;;18.40;6.50;;;;;;;3.50;71.86;99605.52;130370;1267;108631;-76
2022/02/23 02:17:28;;;;;;;16.00;5.80;;;;;;;3.48;71.92;99601.45;130334;1267;108958;-74
2022/02/23 02:20:34;;;;;;;18.80;6.00;;;;;;;3.50;71.82;99597.48;130422;1266;108849;-75
2022/02/23 02:23:40;;;;;;;16.20;5.70;;;;;;;3.57;71.70;99592.20;130464;1267;107691;-74
2022/02/23 02:26:45;;;;;;;13.90;6.00;;;;;;;3.65;71.75;99595.93;130477;1266;106811;-77
2022/02/23 02:29:51;;;;;;;20.10;6.40;;;;;;;3.71;71.64;99593.67;130375;1267;109026;-76
2022/02/23 02:32:56;;;;;;;15.30;5.60;;;;;;;3.72;71.55;99589.86;130353;1267;108798;-76
2022/02/23 02:36:02;;;;;;;18.50;5.90;;;;;;;3.73;71.62;99583.59;130405;1267;108923;-76
2022/02/23 02:39:07;;;;;;;14.50;5.30;;;;;;;3.73;71.39;99580.30;130504;1267;108765;-73
2022/02/23 02:42:13;;;;;;;16.10;5.90;;;;;;;3.74;71.48;99583.20;130511;1267;108721;-78
2022/02/23 02:45:18;;;;;;;12.20;5.40;;;;;;;3.73;71.35;99577.10;130526;1267;108963;-77
2022/02/23 02:48:24;;;;;;;16.40;6.30;;;;;;;3.71;71.21;99579.36;130608;1267;108792;-78
2022/02/23 02:51:29;;;;;;;13.40;5.00;;;;;;;3.69;71.27;99571.85;130920;1267;108705;-77
2022/02/23 02:54:36;;;;;;;17.60;5.60;;;;;;;3.67;71.38;99569.34;130806;1267;108709;-76
2022/02/23 02:57:42;;;;;;;18.90;5.30;;;;;;;3.66;71.19;99568.55;130365;1267;108568;-76
2022/02/23 03:00:47;;;;;;;16.90;5.60;;;;;;;3.67;71.28;99566.73;130335;1267;109136;-76
2022/02/23 03:03:53;;;;;;;13.20;4.90;;;;;;;3.72;71.33;99561.77;130360;1267;109003;-77
2022/02/23 03:06:58;;;;;;;12.00;5.10;;;;;;;3.80;71.38;99564.63;130420;1267;108986;-78
2022/02/23 03:10:04;;;;;;;13.90;5.00;;;;;;;3.86;71.27;99560.73;130390;1267;107779;-78
2022/02/23 03:13:10;;;;;;;14.90;5.50;;;;;;;3.92;71.23;99559.36;130386;1267;108675;-78
2022/02/23 03:16:16;;;;;;;15.90;5.60;;;;;;;3.97;71.39;99559.17;130339;1267;107714;-78
2022/02/23 03:19:22;;;;;;;14.00;5.70;;;;;;;3.99;71.83;99558.52;130374;1267;108703;-80
2022/02/23 03:22:27;;;;;;;16.50;5.30;;;;;;;3.96;71.76;99551.91;130562;1267;108848;-82
2022/02/23 03:25:33;;;;;;;15.10;5.50;;;;;;;3.89;72.15;99555.72;130521;1267;108872;-81
2022/02/23 03:28:39;;;;;;;10.70;5.30;;;;;;;3.85;72.26;99557.17;130502;1266;108838;-80
2022/02/23 03:31:45;;;;;;;16.50;6.00;;;;;;;3.81;72.51;99551.33;130395;1267;108791;-79
2022/02/23 03:34:50;;;;;;;12.30;5.00;;;;;;;3.79;72.59;99550.23;130342;1267;107159;-80
2022/02/23 03:37:56;;;;;;;15.40;4.90;;;;;;;3.80;72.82;99548.03;130436;1267;106812;-78
2022/02/23 03:41:01;;;;;;;13.70;5.60;;;;;;;3.85;72.96;99543.77;130376;1267;109129;-81
2022/02/23 03:44:07;;;;;;;14.20;6.10;;;;;;;3.87;73.07;99537.98;130379;1267;108899;-79
2022/02/23 03:47:13;;;;;;;16.30;5.60;;;;;;;3.89;72.93;99535.71;130442;1267;108883;-80
2022/02/23 03:50:19;;;;;;;15.20;5.70;;;;;;;3.89;73.06;99531.83;130542;1267;106669;-80
2022/02/23 03:53:25;;;;;;;15.40;6.10;;;;;;;3.87;73.36;99527.23;130491;1266;108949;-80
2022/02/23 03:56:39;;;;;;;13.80;5.50;;;;;;;3.82;73.21;99526.42;130363;1267;108858;-80
2022/02/23 03:59:45;;;;;;;13.90;5.10;;;;;;;3.76;73.46;99526.73;130348;1267;108464;-80
2022/02/23 04:02:50;;;;;;;14.40;5.30;;;;;;;3.72;73.64;99524.95;130425;1267;108926;-79
2022/02/23 04:05:56;;;;;;;12.90;4.60;;;;;;;3.72;73.60;99526.02;130338;1266;108841;-81
2022/02/23 04:09:02;;;;;;;16.60;5.50;;;;;;;3.76;73.77;99523.90;130847;1267;108689;-79
2022/02/23 04:12:09;;;;;;;12.40;5.10;;;;;;;3.80;73.96;99524.16;130900;1267;110243;-76
2022/02/23 04:15:14;;;;;;;10.30;5.20;;;;;;;3.80;73.86;99520.09;130674;1267;107878;-76
2022/02/23 04:18:20;;;;;;;12.40;5.70;;;;;;;3.79;73.94;99518.05;130607;1267;107421;-76
2022/02/23 04:21:25;;;;;;;12.00;5.10;;;;;;;3.76;73.89;99513.01;130520;1266;108750;-76
2022/02/23 04:24:31;;;;;;;12.60;5.20;;;;;;;3.75;74.18;99512.91;130602;1266;108974;-75
2022/02/23 04:27:36;;;;;;;12.00;5.10;;;;;;;3.70;74.23;99509.13;130375;1267;108830;-76
2022/02/23 04:30:42;;;;;;;10.80;4.70;;;;;;;3.67;74.38;99511.14;130329;1267;109066;-77
2022/02/23 04:33:47;;;;;;;9.00;4.50;;;;;;;3.69;74.34;99509.90;130317;1267;108913;-77
2022/02/23 04:36:53;;;;;;;11.90;5.40;;;;;;;3.76;74.64;99507.77;131339;1267;108680;-78
2022/02/23 04:40:00;;;;;;;13.40;5.20;;;;;;;3.82;74.54;99513.94;132327;1267;107851;-78
2022/02/23 04:43:05;;;;;;;10.50;5.00;;;;;;;3.85;74.57;99509.63;132375;1266;108870;-77
2022/02/23 04:46:12;;;;;;;10.00;5.50;;;;;;;3.86;74.72;99508.48;131932;1266;108637;-77
2022/02/23 04:49:17;;;;;;;9.90;5.20;;;;;;;3.88;74.95;99512.55;131816;1267;108885;-77
2022/02/23 04:52:25;;;;;;;12.90;5.60;;;;;;;3.86;74.88;99507.75;131450;1267;108776;-77
2022/02/23 04:55:30;;;;;;;10.30;5.00;;;;;;;3.86;75.02;99507.99;130900;1267;108866;-76
2022/02/23 04:58:36;;;;;;;10.50;5.00;;;;;;;3.88;75.32;99506.03;130734;1266;108649;-76
2022/02/23 05:01:41;;;;;;;10.40;5.50;;;;;;;3.92;75.37;99504.25;130806;1267;107602;-75
2022/02/23 05:04:47;;;;;;;11.60;5.40;;;;;;;3.95;75.54;99500.94;130940;1267;108094;-75
2022/02/23 05:07:52;;;;;;;10.10;5.40;;;;;;;3.97;75.41;99510.27;131032;1267;108726;-76
2022/02/23 05:10:58;;;;;;;11.60;6.00;;;;;;;3.97;75.36;99514.67;131139;1267;109126;-76
2022/02/23 05:14:04;;;;;;;12.10;5.80;;;;;;;3.93;75.63;99513.51;131102;1267;108887;-76
2022/02/23 05:17:11;;;;;;;10.20;5.50;;;;;;;3.93;75.73;99512.99;130624;1267;108583;-76
2022/02/23 05:20:16;;;;;;;9.70;5.30;;;;;;;3.95;75.80;99518.15;130576;1267;108961;-76
2022/02/23 05:23:22;;;;;;;9.60;4.90;;;;;;;4.01;75.88;99532.23;130584;1267;108720;-75
2022/02/23 05:26:27;;;;;;;9.10;5.40;;;;;;;4.07;75.99;99530.48;130547;1267;108607;-75
2022/02/23 05:29:33;;;;;;;11.50;5.00;;;;;;;4.11;75.93;99526.45;130708;1267;107048;-76
2022/02/23 05:32:39;;;;;;;9.80;5.40;;;;;;;4.16;75.87;99528.89;130511;1267;108588;-78
2022/02/23 05:35:45;;;;;;;9.40;5.70;;;;;;;4.18;76.03;99534.39;131068;1267;108664;-78
2022/02/23 05:38:50;;;;;;;19.20;11.90;;;;;;;4.18;76.09;99534.65;131739;1268;108508;-78
2022/02/23 05:41:55;;;;;;;34.60;13.40;;;;;;;4.21;76.11;99533.70;131574;1267;107837;-78
2022/02/23 05:45:01;;;;;;;57.10;22.00;;;;;;;4.27;76.18;99536.02;130946;1267;108783;-77
2022/02/23 05:48:07;;;;;;;18.80;10.00;;;;;;;4.35;76.28;99539.55;130567;1267;108702;-78
2022/02/23 05:51:31;;;;;;;118.80;42.10;;;;;;;4.41;76.22;99544.21;131104;1268;108888;-76
2022/02/23 05:54:36;;;;;;;27.50;17.40;;;;;;;4.42;76.23;99543.73;131112;1268;107884;-76
2022/02/23 05:57:42;;;;;;;17.10;10.70;;;;;;;4.42;76.27;99547.60;130738;1268;108700;-76
2022/02/23 06:00:47;;;;;;;10.20;5.50;;;;;;;4.43;76.57;99556.36;130652;1267;108884;-76
2022/02/23 06:03:53;;;;;;;12.00;5.60;;;;;;;4.44;76.83;99570.88;130573;1267;109024;-76
2022/02/23 06:06:58;;;;;;;10.10;5.60;;;;;;;4.49;77.21;99570.66;130534;1268;108726;-76
2022/02/23 06:10:05;;;;;;;34.80;19.70;;;;;;;4.52;77.29;99575.63;130505;1268;108802;-76
2022/02/23 06:13:11;;;;;;;21.50;11.00;;;;;;;4.51;77.74;99589.14;130519;1268;108914;-77
2022/02/23 06:16:16;;;;;;;29.10;13.40;;;;;;;4.46;78.81;99593.26;131669;1268;108944;-77
2022/02/23 06:19:22;;;;;;;22.10;9.40;;;;;;;4.42;79.68;99595.31;131284;1268;107841;-77
2022/02/23 06:22:27;;;;;;;35.80;19.60;;;;;;;4.40;80.24;99602.92;131197;1267;108302;-77
2022/02/23 06:25:33;;;;;;;16.60;8.90;;;;;;;4.42;80.00;99607.64;131173;1268;108804;-77
2022/02/23 06:28:38;;;;;;;49.40;23.40;;;;;;;4.47;80.36;99618.34;131286;1267;108614;-77
2022/02/23 06:31:56;;;;;;;36.80;18.30;;;;;;;4.48;80.54;99623.52;131105;1267;107686;-77
2022/02/23 06:35:02;;;;;;;9.10;3.70;;;;;;;4.51;80.66;99634.02;131089;1268;108910;-77
2022/02/23 06:38:08;;;;;;;14.60;6.50;;;;;;;4.54;80.53;99640.80;130911;1268;108871;-76
2022/02/23 06:41:15;;;;;;;134.50;30.80;;;;;;;4.57;81.31;99651.29;130737;1268;108627;-77
2022/02/23 06:44:23;;;;;;;49.30;17.00;;;;;;;4.60;80.79;99655.83;130811;1267;109301;-77
2022/02/23 06:47:28;;;;;;;13.20;5.60;;;;;;;4.60;80.56;99662.54;130748;1268;108763;-76
2022/02/23 06:50:33;;;;;;;9.30;3.10;;;;;;;4.60;80.31;99670.27;130576;1268;108720;-78
2022/02/23 06:53:39;;;;;;;13.20;3.90;;;;;;;4.60;80.91;99679.73;130527;1267;108660;-76
2022/02/23 06:56:45;;;;;;;12.70;5.20;;;;;;;4.65;80.49;99687.99;130365;1268;108663;-76
2022/02/23 06:59:52;;;;;;;24.60;11.10;;;;;;;4.67;80.77;99697.79;130406;1268;108770;-77
2022/02/23 07:02:58;;;;;;;18.70;7.00;;;;;;;4.67;80.81;99708.42;130461;1268;108671;-79
2022/02/23 07:06:03;;;;;;;16.30;6.50;;;;;;;4.68;80.68;99719.02;130504;1267;108786;-79
2022/02/23 07:09:08;;;;;;;10.70;4.60;;;;;;;4.77;80.16;99721.72;130397;1268;108798;-79
2022/02/23 07:12:15;;;;;;;44.70;16.50;;;;;;;4.84;79.89;99724.61;130347;1267;108621;-80
2022/02/23 07:15:22;;;;;;;28.00;10.60;;;;;;;4.93;80.15;99731.11;130376;1268;107656;-80
2022/02/23 07:18:29;;;;;;;20.80;8.30;;;;;;;5.02;79.49;99735.08;130317;1266;108657;-80
2022/02/23 07:21:34;;;;;;;15.80;5.00;;;;;;;5.14;79.28;99741.98;130351;1267;106980;-79
2022/02/23 07:24:40;;;;;;;14.50;5.20;;;;;;;5.19;79.04;99746.13;130390;1268;109340;-80
2022/02/23 07:27:46;;;;;;;26.60;9.70;;;;;;;5.23;78.66;99760.10;130362;1267;108837;-77
2022/02/23 07:30:51;;;;;;;29.70;9.00;;;;;;;5.30;78.64;99760.59;130505;1268;108666;-80
2022/02/23 07:33:57;;;;;;;37.30;11.70;;;;;;;5.33;78.26;99776.00;130347;1267;108344;-79
2022/02/23 07:37:03;;;;;;;69.20;17.70;;;;;;;5.36;78.13;99779.27;130330;1267;108703;-79
2022/02/23 07:40:12;;;;;;;18.00;6.50;;;;;;;5.35;77.81;99792.98;130093;1268;108734;-78
2022/02/23 07:43:17;;;;;;;15.50;4.70;;;;;;;5.39;77.55;99791.05;130382;1267;108628;-79
2022/02/23 07:46:24;;;;;;;46.20;17.80;;;;;;;5.47;77.61;99800.41;130379;1268;108811;-80
2022/02/23 07:49:30;;;;;;;18.90;5.70;;;;;;;5.51;76.87;99809.94;130336;1268;108771;-78
2022/02/23 07:52:36;;;;;;;15.60;4.90;;;;;;;5.54;76.83;99817.14;130415;1268;106720;-79
2022/02/23 07:55:42;;;;;;;151.70;55.20;;;;;;;5.51;76.60;99816.77;130390;1268;108632;-79
2022/02/23 07:58:47;;;;;;;17.40;7.30;;;;;;;5.57;76.73;99828.02;130344;1267;108848;-78
2022/02/23 08:01:52;;;;;;;16.60;4.60;;;;;;;5.61;76.23;99826.59;130352;1268;108761;-79
2022/02/23 08:04:58;;;;;;;14.00;4.60;;;;;;;5.65;76.05;99835.53;130408;1268;108211;-79
2022/02/23 08:08:05;;;;;;;11.70;3.50;;;;;;;5.64;75.24;99847.98;130349;1266;108649;-79
2022/02/23 08:11:10;;;;;;;13.70;3.30;;;;;;;5.65;75.86;99839.09;130444;1268;107563;-79
2022/02/23 08:14:15;;;;;;;15.80;4.30;;;;;;;5.69;75.44;99840.17;130515;1268;108923;-77
2022/02/23 08:20:44;;;;;;;12.50;4.00;;;;;;;5.86;75.08;99842.73;130522;1268;109498;-78
2022/02/23 08:23:50;;;;;;;13.50;3.70;;;;;;;6.00;74.10;99855.20;130411;1268;107455;-79
2022/02/23 08:26:56;;;;;;;12.60;3.70;;;;;;;6.03;73.77;99857.76;130340;1266;108933;-80
2022/02/23 08:30:04;;;;;;;38.30;14.10;;;;;;;6.02;73.61;99864.20;130503;1268;108757;-77
2022/02/23 08:33:09;;;;;;;194.30;81.20;;;;;;;6.04;73.73;99868.76;130508;1268;108744;-78
2022/02/23 08:36:15;;;;;;;59.10;22.30;;;;;;;6.12;74.10;99865.11;130390;1266;107189;-80
2022/02/23 08:39:20;;;;;;;14.10;4.80;;;;;;;6.08;73.59;99874.79;130415;1267;108668;-79
2022/02/23 08:42:26;;;;;;;36.20;19.00;;;;;;;6.07;73.49;99877.19;130511;1268;108864;-79
2022/02/23 08:45:33;;;;;;;69.50;32.40;;;;;;;6.14;72.43;99887.32;130491;1267;107140;-79
2022/02/23 08:48:39;;;;;;;19.70;9.40;;;;;;;6.20;72.89;99892.60;130529;1268;107427;-79
2022/02/23 08:51:46;;;;;;;28.50;10.40;;;;;;;6.26;73.18;99893.73;130552;1268;108905;-79
2022/02/23 08:54:52;;;;;;;14.80;4.50;;;;;;;6.31;72.70;99897.52;130381;1268;108651;-78
2022/02/23 08:57:58;;;;;;;18.20;5.20;;;;;;;6.35;72.28;99907.75;130401;1268;108838;-80
2022/02/23 09:01:04;;;;;;;16.20;5.80;;;;;;;6.28;71.97;99914.16;130457;1267;108735;-80
2022/02/23 09:04:09;;;;;;;9.40;3.10;;;;;;;6.25;73.03;99916.94;130438;1268;108950;-78
2022/02/23 09:07:15;;;;;;;14.30;4.20;;;;;;;6.26;72.80;99920.33;130515;1267;108982;-79
2022/02/23 09:10:21;;;;;;;13.10;3.50;;;;;;;6.33;72.07;99923.64;130496;1267;109004;-79
2022/02/23 09:13:26;;;;;;;15.60;3.90;;;;;;;6.39;72.12;99929.48;130527;1268;107647;-78
2022/02/23 09:16:32;;;;;;;15.60;5.30;;;;;;;6.52;72.56;99928.89;130513;1267;108702;-79
2022/02/23 09:19:38;;;;;;;53.30;30.30;;;;;;;6.63;71.71;99933.05;130548;1267;109114;-79
2022/02/23 09:22:43;;;;;;;180.60;56.30;;;;;;;6.70;71.69;99941.77;130308;1267;108748;-79
2022/02/23 09:25:49;;;;;;;299.70;116.90;;;;;;;6.73;71.98;99938.16;130289;1267;108797;-78
2022/02/23 09:28:54;;;;;;;34.40;11.80;;;;;;;6.83;71.99;99939.27;130288;1267;108777;-78
2022/02/23 09:32:00;;;;;;;16.10;4.90;;;;;;;6.83;71.04;99945.38;130289;1267;107684;-79
2022/02/23 09:35:07;;;;;;;12.70;3.80;;;;;;;6.70;70.32;99947.30;130302;1267;108745;-78
2022/02/23 09:38:12;;;;;;;12.00;3.60;;;;;;;6.48;70.19;99950.09;130163;1267;108684;-79
2022/02/23 09:41:18;;;;;;;12.00;3.40;;;;;;;6.44;70.98;99951.47;130278;1267;108921;-79
2022/02/23 09:44:27;;;;;;;14.10;3.90;;;;;;;6.40;70.40;99949.19;130240;1267;108865;-80
2022/02/23 09:47:32;;;;;;;13.20;3.80;;;;;;;6.38;70.69;99958.17;130283;1267;108706;-79
2022/02/23 09:50:38;;;;;;;10.60;3.50;;;;;;;6.44;70.70;99965.48;130307;1267;108891;-79
2022/02/23 09:53:46;;;;;;;9.70;3.00;;;;;;;6.39;70.39;99963.97;130292;1267;108973;-80
2022/02/23 09:56:51;;;;;;;12.20;4.00;;;;;;;6.33;70.32;99969.66;130356;1267;107399;-78
2022/02/23 09:59:58;;;;;;;14.20;6.90;;;;;;;6.36;70.51;99969.67;130204;1267;108733;-79
2022/02/23 10:03:04;;;;;;;10.20;3.50;;;;;;;6.41;70.36;99983.73;130163;1267;108755;-80
2022/02/23 10:06:20;;;;;;;16.50;6.30;;;;;;;6.45;70.58;99975.77;130307;1267;107765;-80
2022/02/23 10:09:26;;;;;;;9.70;3.60;;;;;;;6.63;70.15;99986.95;130330;1267;108671;-79
2022/02/23 10:12:31;;;;;;;17.80;5.40;;;;;;;6.65;69.68;100002.10;130279;1267;108663;-79
2022/02/23 10:15:40;;;;;;;13.80;3.40;;;;;;;6.46;71.43;100011.06;130318;1267;108913;-79
2022/02/23 10:18:46;;;;;;;34.00;12.30;;;;;;;6.15;73.05;100013.30;130507;1267;108523;-79
2022/02/23 10:21:57;;;;;;;14.50;3.60;;;;;;;6.05;74.31;100033.08;130352;1267;107019;-82
2022/02/23 10:25:03;;;;;;;20.20;5.40;;;;;;;5.97;74.61;100028.64;130502;1267;108779;-80
2022/02/23 10:28:10;;;;;;;17.10;4.60;;;;;;;5.91;74.78;100026.24;130572;1267;109003;-80
2022/02/23 10:31:19;;;;;;;29.30;8.00;;;;;;;6.00;74.96;100033.35;130276;1267;108878;-80
2022/02/23 10:34:26;;;;;;;15.10;4.20;;;;;;;6.13;74.54;100035.19;130384;1267;109718;-80
2022/02/23 10:37:31;;;;;;;29.90;9.10;;;;;;;6.23;74.02;100035.12;130305;1267;108749;-80
2022/02/23 10:40:44;;;;;;;27.50;9.60;;;;;;;6.43;73.92;100038.86;130302;1267;108851;-79
2022/02/23 10:43:49;;;;;;;21.40;8.70;;;;;;;6.63;73.22;100036.25;130310;1267;109179;-79
2022/02/23 10:46:54;;;;;;;18.40;6.20;;;;;;;6.81;72.45;100037.52;130348;1267;108575;-80
2022/02/23 10:50:07;;;;;;;85.00;33.20;;;;;;;6.91;71.38;100047.95;130349;1267;108769;-80
2022/02/23 10:53:12;;;;;;;38.40;15.40;;;;;;;7.00;71.26;100038.52;130347;1267;108778;-80
2022/02/23 10:56:26;;;;;;;20.80;9.40;;;;;;;7.01;69.13;100044.41;130340;1267;108817;-80
2022/02/23 10:59:32;;;;;;;90.60;36.90;;;;;;;6.97;68.24;100049.77;130245;1267;108711;-79
2022/02/23 11:02:38;;;;;;;18.80;9.90;;;;;;;6.97;68.19;100061.08;130237;1267;107630;-78
2022/02/23 11:05:43;;;;;;;22.90;9.10;;;;;;;6.96;67.50;100060.27;130188;1267;108729;-80
2022/02/23 11:08:49;;;;;;;27.00;11.60;;;;;;;6.91;67.52;100064.39;130222;1267;108728;-79
2022/02/23 11:11:55;;;;;;;14.40;5.20;;;;;;;6.98;67.96;100068.60;130295;1267;109001;-79
2022/02/23 11:15:01;;;;;;;12.10;3.20;;;;;;;7.06;68.36;100069.07;130279;1267;109097;-80
2022/02/23 11:18:07;;;;;;;12.10;4.60;;;;;;;7.19;68.93;100065.36;130324;1267;107376;-78
2022/02/23 11:21:15;;;;;;;12.10;4.60;;;;;;;7.22;67.55;100066.48;130295;1267;108970;-80
2022/02/23 11:24:21;;;;;;;13.30;4.60;;;;;;;7.12;66.68;100069.45;130342;1267;108752;-79
2022/02/23 11:27:28;;;;;;;12.50;4.10;;;;;;;7.11;66.31;100067.44;130341;1267;108810;-79
2022/02/23 11:30:34;;;;;;;12.90;4.40;;;;;;;7.08;65.71;100077.23;130228;1267;108681;-79
2022/02/23 11:33:58;;;;;;;13.40;2.80;;;;;;;6.99;63.40;100085.33;129920;1267;615948;-79
2022/02/23 11:37:15;;;;;;;11.30;3.30;;;;;;;6.97;64.81;100075.20;130300;1267;106686;-80
2022/02/23 11:40:24;;;;;;;12.40;4.20;;;;;;;7.07;64.45;100083.87;130261;1267;108759;-79
2022/02/23 11:43:33;;;;;;;14.00;4.60;;;;;;;7.16;63.60;100081.73;130246;1267;109886;-80
2022/02/23 11:46:58;;;;;;;13.30;4.20;;;;;;;7.28;65.10;100082.38;130367;1267;107312;-79
2022/02/23 11:50:40;;;;;;;11.20;2.60;;;;;;;7.44;64.02;100095.63;130217;1267;108869;-79
2022/02/23 11:54:03;;;;;;;66.20;30.70;;;;;;;7.41;63.51;100101.06;130311;1267;107655;-80
2022/02/23 11:57:26;;;;;;;95.20;33.80;;;;;;;7.43;63.48;100103.89;130363;1266;108797;-79
2022/02/23 12:00:58;;;;;;;57.90;20.90;;;;;;;7.44;62.47;100107.47;130334;1267;107413;-79
2022/02/23 12:04:13;;;;;;;19.50;6.70;;;;;;;7.39;64.35;100116.07;130308;1267;108573;-80
2022/02/23 12:07:20;;;;;;;10.30;3.00;;;;;;;7.31;63.53;100132.04;130307;1267;108724;-80
2022/02/23 12:10:31;;;;;;;10.90;2.40;;;;;;;7.09;62.77;100144.54;130290;1267;107743;-78
2022/02/23 12:13:39;;;;;;;13.40;5.10;;;;;;;6.90;62.78;100158.02;130241;1267;108839;-78
2022/02/23 12:16:49;;;;;;;23.50;10.40;;;;;;;6.87;64.42;100149.96;130246;1267;109070;-77
2022/02/23 12:19:56;;;;;;;23.40;13.80;;;;;;;6.97;64.47;100155.51;130260;1267;108521;-79
2022/02/23 12:23:06;;;;;;;11.20;3.40;;;;;;;7.07;64.71;100153.39;130249;1267;108806;-79
2022/02/23 12:55:45;;;;;;;13.00;4.10;;;;;;;7.70;64.33;100162.35;125847;1310;649333;-80
2022/02/23 12:58:54;;;;;;;11.40;3.60;;;;;;;7.76;64.04;100167.89;129144;1279;211450;-80
2022/02/23 13:02:02;;;;;;;15.10;6.90;;;;;;;7.71;63.93;100168.98;130144;1271;109022;-78
2022/02/23 13:05:08;;;;;;;17.60;8.70;;;;;;;7.67;64.67;100174.72;130178;1270;108617;-79
2022/02/23 13:08:21;;;;;;;40.10;23.30;;;;;;;7.64;64.61;100175.98;130167;1271;107726;-79
2022/02/23 13:11:33;;;;;;;16.50;7.40;;;;;;;7.71;64.98;100167.31;130159;1271;108638;-79
2022/02/23 13:14:43;;;;;;;75.50;28.80;;;;;;;7.83;64.84;100166.72;130074;1270;108624;-79
2022/02/23 13:17:49;;;;;;;27.50;10.90;;;;;;;7.97;64.19;100169.95;130051;1271;108781;-79
2022/02/23 13:21:07;;;;;;;20.60;7.50;;;;;;;8.00;63.02;100179.72;130225;1270;108707;-80
2022/02/23 13:24:17;;;;;;;36.00;17.70;;;;;;;7.88;62.77;100184.56;130256;1271;109344;-80
2022/02/23 13:27:25;;;;;;;17.70;7.30;;;;;;;7.92;63.56;100174.11;130153;1271;107769;-79
2022/02/23 13:30:31;;;;;;;8.30;3.60;;;;;;;8.05;62.43;100186.31;130145;1271;108579;-79
2022/02/23 13:33:36;;;;;;;7.40;2.50;;;;;;;8.10;62.39;100189.62;130112;1270;108808;-80
2022/02/23 13:36:43;;;;;;;9.40;3.30;;;;;;;8.08;62.21;100195.66;130156;1271;108819;-80
2022/02/23 13:39:55;;;;;;;18.70;7.20;;;;;;;8.00;61.73;100201.65;130071;1271;109086;-79
2022/02/23 13:43:02;;;;;;;14.50;5.20;;;;;;;7.95;62.54;100202.36;130123;1270;108902;-80
2022/02/23 13:46:08;;;;;;;40.10;19.00;;;;;;;7.91;62.47;100213.96;130121;1271;108607;-80
2022/02/23 13:49:13;;;;;;;29.00;15.10;;;;;;;7.75;61.87;100215.64;130174;1271;108751;-80
2022/02/23 13:52:21;;;;;;;27.70;14.10;;;;;;;7.63;62.74;100223.42;130085;1271;108555;-80
2022/02/23 13:55:29;;;;;;;43.80;20.60;;;;;;;7.53;63.27;100228.86;130059;1269;108753;-80
2022/02/23 13:58:34;;;;;;;26.70;13.50;;;;;;;7.37;63.36;100232.40;130172;1271;108808;-80
2022/02/23 14:01:58;;;;;;;28.40;11.00;;;;;;;7.13;63.61;100251.59;130033;1270;108968;-80
2022/02/23 14:05:11;;;;;;;24.70;11.00;;;;;;;6.96;64.51;100246.45;130215;1271;108893;-78
2022/02/23 14:08:16;;;;;;;14.30;7.20;;;;;;;6.96;64.70;100242.06;129951;1271;108489;-80
2022/02/23 14:11:24;;;;;;;13.70;5.80;;;;;;;6.93;64.17;100245.66;129974;1271;108917;-79
2022/02/23 14:14:38;;;;;;;24.70;11.30;;;;;;;6.88;64.20;100250.13;130011;1271;108812;-80
2022/02/23 14:17:44;;;;;;;22.60;10.40;;;;;;;6.93;63.88;100253.09;130002;1270;108824;-79
2022/02/23 14:20:51;;;;;;;12.50;4.90;;;;;;;6.98;63.57;100255.71;129984;1271;108835;-79
2022/02/23 14:23:59;;;;;;;37.70;16.60;;;;;;;6.95;62.91;100260.19;130027;1271;108575;-80
2022/02/23 14:27:06;;;;;;;12.20;4.20;;;;;;;6.91;61.15;100268.33;129990;1270;108870;-80
2022/02/23 14:30:20;;;;;;;38.70;18.90;;;;;;;6.94;61.48;100257.48;129976;1271;108694;-80
2022/02/23 14:33:31;;;;;;;17.80;7.40;;;;;;;6.90;61.20;100266.61;130015;1271;108779;-80
2022/02/23 14:36:37;;;;;;;20.40;10.00;;;;;;;6.87;60.67;100276.89;130027;1270;109736;-80
2022/02/23 14:39:42;;;;;;;19.10;9.10;;;;;;;6.83;60.28;100288.80;130239;1271;108679;-80
2022/02/23 14:42:49;;;;;;;15.60;7.10;;;;;;;6.77;60.94;100288.94;129984;1271;107925;-80
2022/02/23 14:45:55;;;;;;;21.90;8.50;;;;;;;6.75;61.49;100299.05;130028;1271;108689;-80
2022/02/23 14:49:01;;;;;;;58.60;23.10;;;;;;;6.73;61.80;100308.92;129998;1270;108884;-79